createdAt,value
2018-12-04T00:01:33.883Z,8.20
2018-12-04T00:04:03.966Z,8.10
2018-12-04T00:06:34.601Z,8.10
2018-12-04T00:09:07.558Z,8.10
2018-12-04T00:11:40.024Z,8.20
2018-12-04T00:14:11.233Z,8.10
2018-12-04T00:16:41.672Z,8.20
2018-12-04T00:19:11.710Z,8.10
2018-12-04T00:21:41.898Z,8.10
2018-12-04T00:24:12.747Z,8.20
2018-12-04T00:26:43.653Z,8.20
2018-12-04T00:29:14.881Z,8.10
2018-12-04T00:31:45.144Z,8.20
2018-12-04T00:34:17.129Z,8.20
2018-12-04T00:36:47.727Z,8.20
2018-12-04T00:39:18.007Z,8.20
2018-12-04T00:41:48.156Z,8.20
2018-12-04T00:44:19.043Z,8.20
2018-12-04T00:46:49.006Z,8.20
2018-12-04T00:49:19.234Z,8.20
2018-12-04T00:51:49.953Z,8.10
2018-12-04T00:54:20.057Z,8.00
2018-12-04T00:56:50.883Z,8.00
2018-12-04T00:59:21.283Z,7.90
2018-12-04T01:01:51.850Z,7.90
2018-12-04T01:04:22.588Z,7.80
2018-12-04T01:06:53.264Z,7.80
2018-12-04T01:09:23.774Z,7.80
2018-12-04T01:11:54.052Z,7.80
2018-12-04T01:14:24.813Z,7.80
2018-12-04T01:16:55.202Z,7.80
2018-12-04T01:19:25.470Z,7.80
2018-12-04T01:21:56.396Z,7.80
2018-12-04T01:24:26.662Z,7.80
2018-12-04T01:26:58.310Z,7.90
2018-12-04T01:29:28.717Z,7.90
2018-12-04T01:31:58.995Z,7.90
2018-12-04T01:34:29.195Z,7.90
2018-12-04T01:36:59.234Z,7.90
2018-12-04T01:39:29.317Z,7.80
2018-12-04T01:41:59.371Z,7.80
2018-12-04T01:44:30.301Z,7.80
2018-12-04T01:47:00.577Z,7.70
2018-12-04T01:49:30.912Z,7.60
2018-12-04T01:52:00.958Z,7.60
2018-12-04T01:54:31.371Z,7.50
2018-12-04T01:57:01.489Z,7.40
2018-12-04T01:59:33.261Z,7.40
2018-12-04T02:02:03.423Z,7.30
2018-12-04T02:04:33.919Z,7.30
2018-12-04T02:07:04.065Z,7.30
2018-12-04T02:09:34.027Z,7.30
2018-12-04T02:12:05.529Z,7.30
2018-12-04T02:14:38.094Z,7.20
2018-12-04T02:17:08.375Z,7.10
2018-12-04T02:19:38.533Z,7.10
2018-12-04T02:22:09.793Z,7.10
2018-12-04T02:24:40.323Z,7.10
2018-12-04T02:27:11.585Z,7.10
2018-12-04T02:29:41.562Z,7.20
2018-12-04T02:32:11.769Z,7.30
2018-12-04T02:34:41.800Z,7.30
2018-12-04T02:37:11.818Z,7.30
2018-12-04T02:39:42.069Z,7.30
2018-12-04T02:42:12.362Z,7.30
2018-12-04T02:44:42.938Z,7.30
2018-12-04T02:47:13.642Z,7.30
2018-12-04T02:49:43.833Z,7.30
2018-12-04T02:52:14.325Z,7.20
2018-12-04T02:54:44.669Z,7.20
2018-12-04T02:57:15.130Z,7.10
2018-12-04T02:59:45.862Z,7.00
2018-12-04T03:02:16.482Z,7.00
2018-12-04T03:04:47.666Z,6.90
2018-12-04T03:07:18.094Z,6.90
2018-12-04T03:09:48.420Z,7.00
2018-12-04T03:12:19.234Z,7.00
2018-12-04T03:14:50.082Z,7.00
2018-12-04T03:17:21.270Z,7.00
2018-12-04T03:19:51.285Z,7.00
2018-12-04T03:22:22.868Z,7.00
2018-12-04T03:24:52.881Z,7.00
2018-12-04T03:27:23.522Z,7.00
2018-12-04T03:29:54.460Z,7.00
2018-12-04T03:32:26.216Z,7.00
2018-12-04T03:34:57.028Z,7.00
2018-12-04T03:37:27.244Z,7.10
2018-12-04T03:39:59.716Z,7.10
2018-12-04T03:42:29.925Z,7.20
2018-12-04T03:45:01.148Z,7.20
2018-12-04T03:47:31.369Z,7.20
2018-12-04T03:50:02.293Z,7.20
2018-12-04T03:52:33.301Z,7.20
2018-12-04T03:55:15.978Z,7.20
2018-12-04T03:57:46.730Z,7.20
2018-12-04T04:00:17.124Z,7.20
2018-12-04T04:02:47.500Z,7.20
2018-12-04T04:05:20.191Z,7.20
2018-12-04T04:07:51.272Z,7.10
2018-12-04T04:10:22.837Z,7.10
2018-12-04T04:12:53.124Z,6.90
2018-12-04T04:15:23.806Z,6.80
2018-12-04T04:17:54.042Z,6.80
2018-12-04T04:20:24.966Z,6.60
2018-12-04T04:22:55.418Z,6.50
2018-12-04T04:25:25.852Z,6.40
2018-12-04T04:27:55.916Z,6.30
2018-12-04T04:30:26.165Z,6.20
2018-12-04T04:32:56.502Z,6.10
2018-12-04T04:35:28.752Z,6.00
2018-12-04T04:37:59.738Z,6.00
2018-12-04T04:40:30.379Z,5.90
2018-12-04T04:43:01.032Z,6.00
2018-12-04T04:45:31.128Z,5.90
2018-12-04T04:48:00.946Z,5.90
2018-12-04T04:50:32.734Z,5.80
2018-12-04T04:53:02.799Z,5.80
2018-12-04T04:55:32.896Z,5.80
2018-12-04T04:58:04.038Z,5.70
2018-12-04T05:00:34.607Z,5.70
2018-12-04T05:03:05.904Z,5.70
2018-12-04T05:05:39.542Z,5.70
2018-12-04T05:08:09.850Z,5.70
2018-12-04T05:10:41.070Z,5.70
2018-12-04T05:13:11.579Z,5.70
2018-12-04T05:15:42.022Z,5.60
2018-12-04T05:18:12.442Z,5.60
2018-12-04T05:20:42.770Z,5.60
2018-12-04T05:23:12.948Z,5.50
2018-12-04T05:25:42.969Z,5.50
2018-12-04T05:28:13.479Z,5.60
2018-12-04T05:30:43.629Z,5.60
2018-12-04T05:33:14.189Z,5.60
2018-12-04T05:35:44.468Z,5.60
2018-12-04T05:38:15.475Z,5.70
2018-12-04T05:40:45.610Z,5.80
2018-12-04T05:43:16.619Z,5.80
2018-12-04T05:45:47.129Z,5.80
2018-12-04T05:48:17.804Z,5.80
2018-12-04T05:50:48.671Z,5.80
2018-12-04T05:53:29.945Z,5.70
2018-12-04T05:56:00.771Z,5.70
2018-12-04T05:58:31.077Z,5.60
2018-12-04T06:01:01.317Z,5.60
2018-12-04T06:03:31.603Z,5.60
2018-12-04T06:06:01.769Z,5.50
2018-12-04T06:08:31.906Z,5.60
2018-12-04T06:11:02.228Z,5.50
2018-12-04T06:13:32.656Z,5.50
2018-12-04T06:16:03.231Z,5.60
2018-12-04T06:18:33.568Z,5.60
2018-12-04T06:21:03.892Z,5.70
2018-12-04T06:23:35.336Z,5.80
2018-12-04T06:26:05.808Z,5.90
2018-12-04T06:28:35.772Z,5.90
2018-12-04T06:31:05.963Z,6.00
2018-12-04T06:33:36.711Z,6.00
2018-12-04T06:36:07.120Z,6.00
2018-12-04T06:38:38.364Z,6.00
2018-12-04T06:41:08.428Z,6.00
2018-12-04T06:43:38.730Z,5.90
2018-12-04T06:46:08.765Z,5.80
2018-12-04T06:48:39.257Z,5.70
2018-12-04T06:51:09.786Z,5.60
2018-12-04T06:53:40.580Z,5.50
2018-12-04T06:56:10.877Z,5.40
2018-12-04T06:58:41.157Z,5.30
2018-12-04T07:01:11.739Z,5.20
2018-12-04T07:03:42.250Z,5.00
2018-12-04T07:06:12.501Z,4.90
2018-12-04T07:08:42.856Z,4.80
2018-12-04T07:11:14.011Z,4.70
2018-12-04T07:13:44.341Z,4.70
2018-12-04T07:16:14.605Z,4.60
2018-12-04T07:18:45.435Z,4.50
2018-12-04T07:21:15.859Z,4.40
2018-12-04T07:23:46.285Z,4.30
2018-12-04T07:26:16.523Z,4.30
2018-12-04T07:28:54.474Z,4.20
2018-12-04T07:31:24.795Z,4.10
2018-12-04T07:33:55.011Z,4.00
2018-12-04T07:36:26.225Z,3.90
2018-12-04T07:38:56.469Z,3.80
2018-12-04T07:41:27.079Z,3.70
2018-12-04T07:43:57.859Z,3.70
2018-12-04T07:46:27.960Z,3.70
2018-12-04T07:48:58.130Z,3.70
2018-12-04T07:51:28.540Z,3.60
2018-12-04T07:53:59.504Z,3.50
2018-12-04T07:56:29.867Z,3.50
2018-12-04T07:59:00.328Z,3.50
2018-12-04T08:01:30.692Z,3.50
2018-12-04T08:04:00.832Z,3.40
2018-12-04T08:06:31.080Z,3.40
2018-12-04T08:09:01.678Z,3.40
2018-12-04T08:11:33.767Z,3.50
2018-12-04T08:14:04.156Z,3.50
2018-12-04T08:16:35.466Z,3.60
2018-12-04T08:19:06.090Z,3.70
2018-12-04T08:21:36.463Z,3.80
2018-12-04T08:24:08.205Z,3.80
2018-12-04T08:26:39.244Z,3.90
2018-12-04T08:29:10.140Z,4.00
2018-12-04T08:31:41.801Z,4.20
2018-12-04T08:34:12.205Z,4.30
2018-12-04T08:36:42.485Z,4.40
2018-12-04T08:39:13.267Z,4.50
2018-12-04T08:41:43.989Z,4.60
2018-12-04T08:44:14.113Z,4.60
2018-12-04T08:46:46.101Z,4.70
2018-12-04T08:49:16.195Z,4.70
2018-12-04T08:51:46.623Z,4.60
2018-12-04T08:54:17.064Z,4.60
2018-12-04T08:56:47.409Z,4.60
2018-12-04T08:59:17.632Z,4.50
2018-12-04T09:01:48.005Z,4.50
2018-12-04T09:04:18.650Z,4.50
2018-12-04T09:06:49.409Z,4.50
2018-12-04T09:09:20.253Z,4.40
2018-12-04T09:11:50.718Z,4.40
2018-12-04T09:14:21.305Z,4.40
2018-12-04T09:16:51.933Z,4.50
2018-12-04T09:19:22.270Z,4.50
2018-12-04T09:21:52.724Z,4.60
2018-12-04T09:24:23.443Z,4.70
2018-12-04T09:26:54.411Z,4.80
2018-12-04T09:29:25.052Z,4.80
2018-12-04T09:31:55.670Z,4.90
2018-12-04T09:34:29.965Z,5.00
2018-12-04T09:37:00.064Z,5.10
2018-12-04T09:39:30.452Z,5.20
2018-12-04T09:42:01.937Z,5.30
2018-12-04T09:44:32.234Z,5.40
2018-12-04T09:47:02.284Z,5.50
2018-12-04T09:49:32.562Z,5.60
2018-12-04T09:52:03.734Z,5.70
2018-12-04T09:54:33.911Z,5.80
2018-12-04T09:57:04.599Z,6.00
2018-12-04T09:59:39.473Z,6.20
2018-12-04T10:02:07.719Z,6.30
2018-12-04T10:04:40.593Z,6.30
2018-12-04T10:07:11.208Z,6.40
2018-12-04T10:09:41.237Z,6.50
2018-12-04T10:12:11.783Z,6.60
2018-12-04T10:14:43.093Z,6.70
2018-12-04T10:17:13.451Z,6.80
2018-12-04T10:19:43.569Z,6.90
2018-12-04T10:22:14.595Z,7.00
2018-12-04T10:24:46.807Z,7.10
2018-12-04T10:27:17.871Z,7.10
2018-12-04T10:29:48.143Z,7.20
2018-12-04T10:32:18.409Z,7.30
2018-12-04T10:34:48.533Z,7.40
2018-12-04T10:37:19.016Z,7.50
2018-12-04T10:39:49.379Z,7.60
2018-12-04T10:42:21.142Z,7.60
2018-12-04T10:44:52.821Z,7.80
2018-12-04T10:47:23.150Z,7.80
2018-12-04T10:49:53.832Z,7.90
2018-12-04T10:52:24.950Z,8.00
2018-12-04T10:54:55.126Z,8.10
2018-12-04T10:57:25.432Z,8.20
2018-12-04T10:59:56.426Z,8.30
2018-12-04T11:02:27.112Z,8.40
2018-12-04T11:04:57.624Z,8.50
2018-12-04T11:07:27.826Z,8.50
2018-12-04T11:09:58.293Z,8.60
2018-12-04T11:12:29.294Z,8.80
2018-12-04T11:15:01.188Z,8.80
2018-12-04T11:17:31.594Z,8.90
2018-12-04T11:20:02.725Z,8.90
2018-12-04T11:22:34.478Z,8.90
2018-12-04T11:25:05.809Z,8.90
2018-12-04T11:27:36.235Z,8.90
2018-12-04T11:30:07.690Z,9.00
2018-12-04T11:32:38.273Z,9.10
2018-12-04T11:35:08.624Z,9.20
2018-12-04T11:37:39.242Z,9.20
2018-12-04T11:40:09.498Z,9.30
2018-12-04T11:42:39.890Z,9.40
2018-12-04T11:45:10.676Z,9.40
2018-12-04T11:47:47.227Z,9.50
2018-12-04T11:50:17.626Z,9.50
2018-12-04T11:52:48.151Z,9.40
2018-12-04T11:55:18.698Z,9.40
2018-12-04T11:57:49.113Z,9.30
2018-12-04T12:00:28.751Z,9.30
2018-12-04T12:02:59.248Z,9.20
2018-12-04T12:05:29.749Z,9.20
2018-12-04T12:08:02.428Z,9.20
2018-12-04T12:10:32.726Z,9.30
2018-12-04T12:13:02.815Z,9.20
2018-12-04T12:15:33.186Z,9.30
2018-12-04T12:18:03.515Z,9.20
2018-12-04T12:20:35.478Z,9.20
2018-12-04T12:23:05.883Z,9.40
2018-12-04T12:25:36.208Z,9.50
2018-12-04T12:28:07.621Z,9.60
2018-12-04T12:30:37.678Z,9.80
2018-12-04T12:33:08.068Z,9.90
2018-12-04T12:35:39.633Z,10.10
2018-12-04T12:38:10.235Z,10.20
2018-12-04T12:40:43.694Z,10.00
2018-12-04T12:43:13.663Z,10.10
2018-12-04T12:45:43.904Z,10.30
2018-12-04T12:48:14.170Z,10.60
2018-12-04T12:50:45.691Z,10.70
2018-12-04T12:53:16.445Z,10.60
2018-12-04T12:55:47.525Z,10.50
2018-12-04T12:58:17.914Z,10.30
2018-12-04T13:00:48.395Z,10.00
2018-12-04T13:03:18.491Z,9.90
2018-12-04T13:05:49.303Z,9.70
2018-12-04T13:08:19.603Z,9.70
2018-12-04T13:10:51.842Z,9.50
2018-12-04T13:13:22.573Z,9.40
2018-12-04T13:15:52.936Z,9.20
2018-12-04T13:18:23.163Z,9.00
2018-12-04T13:20:53.572Z,8.80
2018-12-04T13:23:24.056Z,8.70
2018-12-04T13:25:55.094Z,8.70
2018-12-04T13:28:25.432Z,8.70
2018-12-04T13:30:56.653Z,8.80
2018-12-04T13:33:27.426Z,8.80
2018-12-04T13:35:57.357Z,9.00
2018-12-04T13:38:27.836Z,9.00
2018-12-04T13:40:58.675Z,9.10
2018-12-04T13:43:45.288Z,9.20
2018-12-04T13:46:15.924Z,9.30
2018-12-04T13:48:46.260Z,9.30
2018-12-04T13:51:16.680Z,9.40
2018-12-04T13:53:46.929Z,9.40
2018-12-04T13:56:18.006Z,9.30
2018-12-04T13:58:49.291Z,9.30
2018-12-04T14:01:20.896Z,9.30
2018-12-04T14:03:51.150Z,9.30
2018-12-04T14:06:21.396Z,9.30
2018-12-04T14:08:51.929Z,9.30
2018-12-04T14:11:22.641Z,9.30
2018-12-04T14:13:53.755Z,9.30
2018-12-04T14:16:24.579Z,9.40
2018-12-04T14:18:55.006Z,9.40
2018-12-04T14:21:25.520Z,9.30
2018-12-04T14:23:56.429Z,9.30
2018-12-04T14:26:27.034Z,9.20
2018-12-04T14:28:57.486Z,9.00
2018-12-04T14:31:28.647Z,8.80
2018-12-04T14:34:14.950Z,8.70
2018-12-04T14:36:45.395Z,8.70
2018-12-04T14:39:15.875Z,8.70
2018-12-04T14:41:46.702Z,8.70
2018-12-04T14:44:17.739Z,8.60
2018-12-04T14:46:48.044Z,8.50
2018-12-04T14:49:18.869Z,8.40
2018-12-04T14:51:50.506Z,8.30
2018-12-04T14:54:21.055Z,8.30
2018-12-04T14:56:51.507Z,8.30
2018-12-04T14:59:21.867Z,8.40
2018-12-04T15:01:52.202Z,8.50
2018-12-04T15:04:23.745Z,8.70
2018-12-04T15:06:54.453Z,8.90
2018-12-04T15:09:25.196Z,9.00
2018-12-04T15:11:55.671Z,9.00
2018-12-04T15:14:27.071Z,9.00
2018-12-04T15:16:57.442Z,9.10
2018-12-04T15:19:28.379Z,9.10
2018-12-04T15:21:59.122Z,8.90
2018-12-04T15:24:30.447Z,8.60
2018-12-04T15:27:01.921Z,8.30
2018-12-04T15:29:33.405Z,8.00
2018-12-04T15:32:04.208Z,7.80
2018-12-04T15:34:34.794Z,7.70
2018-12-04T15:37:05.571Z,7.50
2018-12-04T15:39:37.636Z,7.40
2018-12-04T15:42:08.233Z,7.20
2018-12-04T15:44:39.136Z,7.10
2018-12-04T15:47:10.041Z,6.90
2018-12-04T15:49:41.362Z,6.80
2018-12-04T15:52:12.056Z,6.60
2018-12-04T15:54:42.599Z,6.50
2018-12-04T15:57:13.113Z,6.40
2018-12-04T15:59:44.095Z,6.20
2018-12-04T16:02:15.118Z,6.10
2018-12-04T16:04:46.008Z,6.00
2018-12-04T16:07:16.129Z,6.00
2018-12-04T16:09:46.747Z,5.90
2018-12-04T16:12:17.598Z,5.90
2018-12-04T16:14:48.501Z,6.00
2018-12-04T16:17:19.018Z,6.00
2018-12-04T16:19:49.749Z,6.00
2018-12-04T16:22:20.770Z,5.90
2018-12-04T16:24:51.259Z,5.80
2018-12-04T16:27:22.097Z,5.80
2018-12-04T16:29:52.343Z,5.70
2018-12-04T16:32:22.912Z,5.70
2018-12-04T16:34:53.226Z,5.70
2018-12-04T16:37:23.470Z,5.80
2018-12-04T16:39:53.788Z,5.80
2018-12-04T16:42:24.861Z,5.70
2018-12-04T16:44:55.082Z,5.70
2018-12-04T16:47:25.756Z,5.70
2018-12-04T16:49:56.074Z,5.60
2018-12-04T16:52:27.152Z,5.60
2018-12-04T16:54:57.651Z,5.60
2018-12-04T16:57:27.862Z,5.50
2018-12-04T16:59:58.218Z,5.50
2018-12-04T17:02:29.278Z,5.50
2018-12-04T17:04:59.555Z,5.50
2018-12-04T17:07:30.237Z,5.50
2018-12-04T17:10:00.914Z,5.60
2018-12-04T17:12:31.318Z,5.60
2018-12-04T17:15:01.584Z,5.60
2018-12-04T17:17:31.941Z,5.50
2018-12-04T17:20:03.080Z,5.50
2018-12-04T17:22:33.502Z,5.50
2018-12-04T17:25:04.670Z,5.50
2018-12-04T17:27:35.112Z,5.40
2018-12-04T17:30:06.780Z,5.40
2018-12-04T17:32:38.055Z,5.40
2018-12-04T17:35:08.108Z,5.30
2018-12-04T17:37:38.910Z,5.30
2018-12-04T17:40:09.250Z,5.30
2018-12-04T17:42:40.586Z,5.30
2018-12-04T17:45:10.660Z,5.30
2018-12-04T17:47:41.023Z,5.30
2018-12-04T17:50:11.297Z,5.20
2018-12-04T17:52:42.248Z,5.20
2018-12-04T17:55:12.569Z,5.10
2018-12-04T17:57:43.575Z,5.10
2018-12-04T18:00:15.548Z,5.10
2018-12-04T18:02:45.956Z,5.10
2018-12-04T18:05:17.123Z,5.10
2018-12-04T18:07:49.885Z,5.10
2018-12-04T18:10:20.310Z,5.10
2018-12-04T18:12:50.296Z,5.10
2018-12-04T18:15:21.582Z,5.10
2018-12-04T18:17:51.866Z,5.10
2018-12-04T18:20:22.166Z,5.10
2018-12-04T18:22:52.721Z,5.10
2018-12-04T18:25:23.138Z,5.10
2018-12-04T18:27:53.447Z,5.10
2018-12-04T18:30:23.938Z,5.10
2018-12-04T18:32:54.165Z,5.00
2018-12-04T18:35:24.397Z,5.00
2018-12-04T18:37:54.694Z,4.90
2018-12-04T18:40:26.377Z,4.90
2018-12-04T18:42:56.785Z,4.80
2018-12-04T18:45:27.837Z,4.80
2018-12-04T18:47:58.143Z,4.70
2018-12-04T18:50:29.188Z,4.70
2018-12-04T18:52:59.847Z,4.70
2018-12-04T18:55:31.900Z,4.70
2018-12-04T18:58:02.274Z,4.70
2018-12-04T19:00:33.512Z,4.70
2018-12-04T19:03:03.847Z,4.70
2018-12-04T19:05:34.165Z,4.70
2018-12-04T19:08:04.487Z,4.70
2018-12-04T19:10:35.281Z,4.70
2018-12-04T19:13:05.345Z,4.70
2018-12-04T19:15:35.943Z,4.70
2018-12-04T19:18:06.173Z,4.70
2018-12-04T19:20:36.546Z,4.70
2018-12-04T19:23:06.816Z,4.60
2018-12-04T19:25:37.070Z,4.60
2018-12-04T19:28:07.159Z,4.60
2018-12-04T19:30:37.778Z,4.60
2018-12-04T19:33:08.785Z,4.60
2018-12-04T19:35:39.369Z,4.60
2018-12-04T19:38:09.946Z,4.60
2018-12-04T19:40:40.148Z,4.60
2018-12-04T19:43:10.408Z,4.60
2018-12-04T19:45:41.479Z,4.50
2018-12-04T19:48:11.968Z,4.50
2018-12-04T19:50:43.259Z,4.50
2018-12-04T19:53:13.697Z,4.50
2018-12-04T19:55:45.968Z,4.50
2018-12-04T19:58:16.475Z,4.40
2018-12-04T20:00:46.520Z,4.40
2018-12-04T20:03:17.792Z,4.40
2018-12-04T20:05:48.708Z,4.40
2018-12-04T20:08:19.706Z,4.40
2018-12-04T20:10:50.087Z,4.40
2018-12-04T20:13:21.245Z,4.40
2018-12-04T20:15:51.978Z,4.30
2018-12-04T20:18:22.085Z,4.30
2018-12-04T20:20:53.029Z,4.40
2018-12-04T20:23:23.749Z,4.30
2018-12-04T20:25:54.331Z,4.30
2018-12-04T20:28:25.323Z,4.30
2018-12-04T20:30:56.465Z,4.30
2018-12-04T20:33:26.821Z,4.30
2018-12-04T20:35:58.133Z,4.30
2018-12-04T20:38:29.481Z,4.30
2018-12-04T20:41:00.587Z,4.30
2018-12-04T20:43:31.065Z,4.30
2018-12-04T20:46:05.896Z,4.30
2018-12-04T20:48:33.873Z,4.30
2018-12-04T20:51:05.481Z,4.30
2018-12-04T20:53:36.184Z,4.30
2018-12-04T20:56:08.305Z,4.20
2018-12-04T20:58:38.553Z,4.20
2018-12-04T21:01:09.593Z,4.20
2018-12-04T21:03:41.492Z,4.10
2018-12-04T21:06:12.349Z,4.10
2018-12-04T21:08:42.748Z,4.10
2018-12-04T21:11:13.058Z,4.10
2018-12-04T21:13:44.385Z,4.10
2018-12-04T21:16:16.186Z,4.10
2018-12-04T21:18:47.407Z,4.10
2018-12-04T21:21:18.715Z,4.00
2018-12-04T21:23:48.951Z,4.10
2018-12-04T21:26:19.155Z,4.00
2018-12-04T21:28:54.708Z,4.00
2018-12-04T21:31:30.080Z,4.00
2018-12-04T21:34:05.447Z,4.00
2018-12-04T21:36:41.680Z,4.00
2018-12-04T21:39:20.720Z,4.00
2018-12-04T21:41:56.444Z,4.00
2018-12-04T21:44:31.850Z,3.90
2018-12-04T21:47:08.486Z,3.90
2018-12-04T21:49:39.704Z,3.90
2018-12-04T21:52:10.275Z,3.90
2018-12-04T21:54:40.926Z,3.80
2018-12-04T21:57:11.256Z,3.80
2018-12-04T21:59:41.540Z,3.70
2018-12-04T22:02:12.456Z,3.70
2018-12-04T22:04:42.711Z,3.70
2018-12-04T22:07:12.962Z,3.60
2018-12-04T22:09:43.194Z,3.60
2018-12-04T22:12:13.403Z,3.50
2018-12-04T22:14:43.704Z,3.50
2018-12-04T22:17:14.728Z,3.40
2018-12-04T22:19:44.969Z,3.40
2018-12-04T22:22:15.656Z,3.40
2018-12-04T22:24:45.953Z,3.30
2018-12-04T22:27:16.954Z,3.30
2018-12-04T22:29:48.287Z,3.30
2018-12-04T22:32:19.118Z,3.20
2018-12-04T22:34:49.283Z,3.20
2018-12-04T22:37:20.311Z,3.30
2018-12-04T22:39:52.237Z,3.30
2018-12-04T22:42:22.717Z,3.30
2018-12-04T22:44:55.909Z,3.30
2018-12-04T22:47:26.649Z,3.30
2018-12-04T22:49:58.417Z,3.30
2018-12-04T22:52:29.841Z,3.30
2018-12-04T22:55:00.983Z,3.40
2018-12-04T22:57:32.368Z,3.40
2018-12-04T23:00:05.394Z,3.50
2018-12-04T23:02:38.479Z,3.50
2018-12-04T23:05:08.989Z,3.60
2018-12-04T23:07:39.863Z,3.60
2018-12-04T23:10:10.911Z,3.60
2018-12-04T23:12:42.059Z,3.70
2018-12-04T23:15:15.335Z,3.70
2018-12-04T23:17:45.987Z,3.80
2018-12-04T23:20:16.643Z,3.90
2018-12-04T23:22:47.221Z,3.90
2018-12-04T23:25:17.678Z,4.00
2018-12-04T23:27:47.805Z,4.00
2018-12-04T23:30:18.793Z,4.00
2018-12-04T23:32:49.233Z,4.10
2018-12-04T23:35:20.109Z,4.00
2018-12-04T23:37:50.189Z,4.00
2018-12-04T23:40:20.502Z,4.00
2018-12-04T23:42:50.912Z,4.00
2018-12-04T23:45:21.251Z,4.10
2018-12-04T23:47:51.319Z,4.10
2018-12-04T23:50:21.433Z,4.10
2018-12-04T23:52:51.846Z,4.10
2018-12-04T23:55:23.715Z,4.20
2018-12-04T23:57:54.068Z,4.20
